Time;durP1;ratioP1;P1;durP2;ratioP2;P2;SDS_P1;SDS_P2;PMS_P1;PMS_P2;Temp;Humidity;BMP_temperature;BMP_pressure;BME280_temperature;BME280_humidity;BME280_pressure;Samples;Min_cycle;Max_cycle;Signal;HPM_P1;HPM_P2
2021/06/05 00:01:28;;;;;;;27.23;20.75;;;20.30;96.00;;;19.24;95.42;100838.66;4988852;28;20046;-76
2021/06/05 00:04:06;;;;;;;28.83;20.88;;;20.30;95.90;;;19.22;95.45;100833.38;4989033;28;20042;-75
2021/06/05 00:06:44;;;;;;;27.27;20.17;;;20.20;95.80;;;19.21;95.63;100830.84;4988892;28;20461;-76
2021/06/05 00:09:24;;;;;;;31.85;22.02;;;20.30;95.90;;;19.20;95.61;100831.94;4989006;28;20160;-75
2021/06/05 00:11:58;;;;;;;33.75;22.27;;;20.30;96.00;;;19.20;95.37;100826.41;4988937;28;20050;-75
2021/06/05 00:14:38;;;;;;;31.13;20.55;;;20.30;96.20;;;19.18;95.52;100828.56;4988994;28;20506;-75
2021/06/05 00:17:13;;;;;;;28.10;20.80;;;20.20;95.90;;;19.16;95.37;100826.03;4988844;28;20487;-75
2021/06/05 00:19:49;;;;;;;28.70;21.83;;;20.20;95.90;;;19.14;95.58;100831.78;4988693;28;20042;-75
2021/06/05 00:22:27;;;;;;;27.80;20.70;;;20.20;96.00;;;19.13;95.34;100830.13;4988864;28;20101;-75
2021/06/05 00:25:02;;;;;;;33.42;20.60;;;20.20;96.00;;;19.12;95.24;100836.69;4987508;28;20046;-76
2021/06/05 00:27:37;;;;;;;26.48;19.58;;;20.20;95.90;;;19.10;95.06;100830.56;4992689;28;20057;-76
2021/06/05 00:30:19;;;;;;;25.33;19.48;;;20.10;95.80;;;19.08;94.90;100829.97;4992379;28;20097;-75
2021/06/05 00:32:59;;;;;;;27.25;19.88;;;20.10;95.70;;;19.07;94.97;100825.50;5007702;22;20411;-90
2021/06/05 00:35:39;;;;;;;28.77;19.92;;;20.20;95.90;;;19.06;95.07;100829.38;4990044;28;20054;-90
2021/06/05 00:38:18;;;;;;;27.52;19.70;;;20.10;95.80;;;19.03;94.65;100827.06;4992481;28;20078;-90
2021/06/05 00:41:01;;;;;;;31.08;20.90;;;20.00;95.60;;;19.01;94.61;100825.63;4990843;28;20058;-90
2021/06/05 00:43:39;;;;;;;29.80;21.10;;;20.00;95.70;;;18.99;94.74;100823.09;4991039;28;20104;-89
2021/06/05 00:46:18;;;;;;;30.27;21.30;;;20.00;95.60;;;18.98;94.39;100821.38;4992325;28;20034;-89
2021/06/05 00:48:59;;;;;;;26.55;19.65;;;20.00;95.70;;;18.98;94.46;100826.91;4991010;28;20057;-89
2021/06/05 00:51:42;;;;;;;27.67;19.25;;;20.00;95.70;;;18.97;94.06;100825.25;4990412;28;20533;-91
2021/06/05 00:54:23;;;;;;;25.92;19.52;;;20.00;95.70;;;18.95;94.20;100821.88;4992037;28;20050;-89
2021/06/05 00:57:13;;;;;;;27.10;19.60;;;19.90;95.60;;;18.95;94.11;100827.38;4990575;28;20174;-89
2021/06/05 00:59:49;;;;;;;27.42;21.25;;;19.90;95.70;;;18.92;93.72;100833.34;4991855;28;20044;-91
2021/06/05 01:02:28;;;;;;;27.92;20.55;;;19.90;95.50;;;18.92;93.83;100836.13;4990678;28;20578;-89
2021/06/05 01:05:07;;;;;;;30.23;20.48;;;19.90;95.70;;;18.88;93.76;100838.50;4990752;28;20051;-89
2021/06/05 01:07:43;;;;;;;31.13;20.38;;;19.90;95.70;;;18.88;93.92;100845.94;4990707;28;20042;-90
2021/06/05 01:10:27;;;;;;;28.00;20.10;;;19.90;95.50;;;18.84;93.65;100847.47;4991673;28;20503;-90
2021/06/05 01:13:12;;;;;;;31.38;21.35;;;19.90;95.60;;;18.81;94.09;100848.78;5007111;28;20050;-90
2021/06/05 01:15:56;;;;;;;34.50;24.08;;;19.90;95.70;;;18.82;94.21;100858.72;4990432;28;20082;-89
2021/06/05 01:18:46;;;;;;;32.17;21.77;;;19.80;95.70;;;18.84;94.43;100853.00;4990581;28;20045;-90
2021/06/05 01:21:49;;;;;;;32.88;24.02;;;19.80;96.00;;;18.85;94.91;100851.91;4990242;28;20050;-89
2021/06/05 01:24:47;;;;;;;34.28;24.75;;;19.90;96.30;;;18.87;95.13;100852.53;4991683;28;20046;-89
2021/06/05 01:27:25;;;;;;;33.55;24.75;;;19.90;96.60;;;18.87;95.61;100847.84;4990033;28;20073;-90
2021/06/05 01:30:11;;;;;;;41.60;26.42;;;19.90;96.70;;;18.89;95.54;100847.63;4990091;28;20116;-89
2021/06/05 01:32:50;;;;;;;40.08;25.30;;;19.90;96.80;;;18.91;95.77;100846.31;4990313;28;20136;-89
2021/06/05 01:35:22;;;;;;;38.00;25.85;;;19.90;96.90;;;18.91;95.95;100845.47;4989796;28;20057;-89
2021/06/05 01:37:56;;;;;;;38.58;24.75;;;19.90;97.00;;;18.89;96.13;100839.34;4989693;28;20042;-89
2021/06/05 01:40:32;;;;;;;35.42;24.75;;;19.90;97.00;;;18.89;96.30;100845.72;4991322;28;20116;-89
2021/06/05 01:43:14;;;;;;;39.63;25.27;;;19.90;97.00;;;18.89;96.55;100847.63;4991408;28;20169;-89
2021/06/05 01:45:53;;;;;;;40.58;26.45;;;19.90;97.00;;;18.90;96.41;100847.38;4991115;28;20402;-90
2021/06/05 01:48:32;;;;;;;39.78;24.85;;;20.00;97.10;;;18.91;96.45;100843.56;4989945;28;20058;-90
2021/06/05 01:51:18;;;;;;;42.70;26.75;;;20.00;97.20;;;18.90;96.63;100841.03;4989725;28;20043;-89
2021/06/05 01:54:02;;;;;;;41.10;26.13;;;20.00;97.20;;;18.91;96.66;100837.22;4990046;28;20081;-89
2021/06/05 01:56:46;;;;;;;40.80;25.90;;;19.90;97.20;;;18.91;96.70;100839.97;4989915;28;20046;-89
2021/06/05 01:59:28;;;;;;;42.95;26.63;;;20.00;97.20;;;18.90;96.82;100854.81;4989499;28;20058;-90
2021/06/05 02:02:08;;;;;;;39.22;25.50;;;20.00;97.20;;;18.89;96.54;100844.88;4989473;28;20046;-89
2021/06/05 02:04:45;;;;;;;40.85;24.27;;;19.90;97.10;;;18.88;96.80;100843.19;4989352;28;20093;-88
2021/06/05 02:07:24;;;;;;;37.63;24.50;;;19.90;97.20;;;18.88;96.87;100844.00;4989262;28;20070;-89
2021/06/05 02:10:04;;;;;;;34.45;22.50;;;19.90;97.30;;;18.87;96.66;100844.28;4990552;28;20034;-88
2021/06/05 02:12:43;;;;;;;40.30;23.10;;;19.90;97.30;;;18.86;96.92;100843.41;4989142;28;20054;-90
2021/06/05 02:15:44;;;;;;;34.40;22.65;;;19.90;97.30;;;18.86;96.70;100839.81;4990870;28;20042;-89
2021/06/05 02:18:29;;;;;;;35.45;22.45;;;19.90;97.40;;;18.85;96.93;100849.13;4990604;28;20057;-89
2021/06/05 02:21:18;;;;;;;36.28;23.02;;;19.90;97.40;;;18.84;97.04;100842.78;4988708;28;20451;-90
2021/06/05 02:24:02;;;;;;;39.72;23.38;;;19.90;97.40;;;18.85;96.87;100849.13;4990183;28;20054;-89
2021/06/05 02:26:41;;;;;;;39.05;23.65;;;19.90;97.60;;;18.83;97.04;100845.78;4969732;28;20047;-89
2021/06/05 02:29:29;;;;;;;37.67;23.75;;;19.90;97.50;;;18.83;96.95;100849.41;4969630;28;20045;-88
2021/06/05 02:32:24;;;;;;;35.67;23.70;;;19.90;97.60;;;18.84;96.97;100844.72;4969486;28;20050;-89
2021/06/05 02:35:03;;;;;;;37.25;22.80;;;19.90;97.60;;;18.83;97.03;100840.25;4970673;28;20046;-89
2021/06/05 02:37:57;;;;;;;32.55;22.38;;;19.90;97.60;;;18.82;97.01;100833.91;4969313;28;20059;-89
2021/06/05 02:40:43;;;;;;;35.20;22.00;;;19.90;97.60;;;18.82;97.55;100839.44;4969186;28;20104;-89
2021/06/05 02:43:28;;;;;;;34.53;23.10;;;19.90;97.70;;;18.84;97.48;100839.19;4970941;28;20116;-89
2021/06/05 02:46:13;;;;;;;37.17;22.50;;;19.90;97.80;;;18.84;97.59;100839.19;4969170;28;20043;-90
2021/06/05 02:49:00;;;;;;;35.45;22.08;;;19.90;97.70;;;18.83;97.73;100834.75;4968274;28;20065;-90
2021/06/05 02:52:04;;;;;;;31.80;20.73;;;19.90;97.80;;;18.83;97.85;100835.63;4969233;28;20511;-90
2021/06/05 02:54:45;;;;;;;39.93;23.53;;;19.90;97.90;;;18.83;97.84;100832.00;4969030;28;20055;-88
2021/06/05 02:57:24;;;;;;;35.00;22.85;;;19.90;98.00;;;18.83;98.11;100838.38;4970506;28;20050;-90
2021/06/05 03:00:07;;;;;;;34.95;23.70;;;19.90;97.90;;;18.82;98.23;100830.31;4968727;28;20058;-88
2021/06/05 03:02:52;;;;;;;36.30;22.52;;;19.90;98.00;;;18.82;98.27;100831.16;4968986;28;20097;-89
2021/06/05 03:05:48;;;;;;;33.90;22.23;;;19.90;98.00;;;18.82;98.38;100833.06;4968949;28;20090;-89
2021/06/05 03:08:33;;;;;;;38.40;24.55;;;19.90;98.00;;;18.83;98.45;100834.75;4970294;28;20503;-90
2021/06/05 03:11:17;;;;;;;35.53;22.75;;;19.90;98.10;;;18.83;98.37;100832.84;4970013;28;20050;-89
2021/06/05 03:13:56;;;;;;;38.80;22.17;;;19.90;98.20;;;18.83;98.21;100824.59;4968630;28;20114;-89
2021/06/05 03:16:32;;;;;;;36.35;23.13;;;19.90;98.20;;;18.83;98.39;100823.72;4968593;28;20133;-89
2021/06/05 03:19:09;;;;;;;36.85;23.65;;;19.90;98.10;;;18.83;98.42;100823.72;4968552;28;20586;-88
2021/06/05 03:21:55;;;;;;;37.22;23.33;;;19.90;98.10;;;18.82;98.50;100819.28;4968400;28;20065;-89
2021/06/05 03:24:39;;;;;;;37.60;24.48;;;19.90;98.20;;;18.81;98.35;100825.88;4968519;28;20101;-90
2021/06/05 03:27:19;;;;;;;39.47;26.08;;;19.90;98.20;;;18.82;98.38;100827.56;4968406;28;20507;-89
2021/06/05 03:29:55;;;;;;;38.58;26.05;;;19.90;98.20;;;18.81;98.27;100823.97;4969638;28;20134;-89
2021/06/05 03:32:28;;;;;;;41.17;25.98;;;19.90;98.20;;;18.81;98.54;100832.25;4968467;28;20503;-89
2021/06/05 03:35:03;;;;;;;40.03;26.17;;;19.90;98.20;;;18.82;98.64;100827.56;4965610;28;20065;-89
2021/06/05 03:37:41;;;;;;;41.15;25.95;;;19.90;98.30;;;18.81;98.55;100823.97;4968583;28;20109;-89
2021/06/05 03:40:20;;;;;;;40.63;25.52;;;19.90;98.30;;;18.81;98.87;100817.59;4969471;28;20046;-88
2021/06/05 03:43:01;;;;;;;44.10;26.33;;;19.90;98.30;;;18.79;99.14;100816.94;4970080;28;20039;-89
2021/06/05 03:45:40;;;;;;;41.25;26.13;;;19.90;98.30;;;18.79;99.06;100811.44;4968229;28;20109;-89
2021/06/05 03:48:24;;;;;;;44.53;26.98;;;19.90;98.40;;;18.79;99.13;100811.44;4968667;28;20499;-89
2021/06/05 03:51:05;;;;;;;48.28;27.88;;;19.90;98.30;;;18.79;99.14;100808.69;4968007;28;20148;-88
2021/06/05 03:53:44;;;;;;;46.30;28.45;;;19.90;98.40;;;18.81;99.01;100814.84;4968043;28;20676;-90
2021/06/05 03:56:24;;;;;;;53.65;29.83;;;19.90;98.40;;;18.82;98.81;100811.03;4969719;28;20558;-89
2021/06/05 03:58:58;;;;;;;44.72;27.98;;;19.90;98.40;;;18.82;98.87;100811.03;4969803;28;20523;-89
2021/06/05 04:01:33;;;;;;;46.67;28.10;;;19.90;98.40;;;18.81;98.77;100814.84;4973469;28;20085;-89
2021/06/05 04:04:12;;;;;;;43.20;27.33;;;19.90;98.50;;;18.81;99.15;100812.06;4973405;28;20047;-89
2021/06/05 04:06:50;;;;;;;49.30;29.63;;;19.90;98.50;;;18.80;99.16;100816.75;4973371;28;20043;-89
2021/06/05 04:09:29;;;;;;;51.72;29.98;;;19.90;98.50;;;18.80;99.37;100818.66;4973353;28;20097;-89
2021/06/05 04:12:08;;;;;;;49.08;28.25;;;19.90;98.50;;;18.80;99.60;100815.91;4971965;28;20056;-89
2021/06/05 04:14:47;;;;;;;48.47;29.30;;;20.00;98.60;;;18.80;99.24;100815.91;4973480;28;20057;-89
2021/06/05 04:17:22;;;;;;;44.70;29.50;;;20.00;98.40;;;18.79;99.27;100815.06;4973421;28;20530;-89
2021/06/05 04:20:00;;;;;;;46.75;28.60;;;19.90;98.30;;;18.78;99.19;100821.63;4972992;28;20051;-89
2021/06/05 04:22:38;;;;;;;44.50;27.73;;;20.00;98.30;;;18.76;99.15;100819.09;4973248;28;20569;-89
2021/06/05 04:25:19;;;;;;;46.65;28.55;;;19.90;98.20;;;18.74;99.10;100818.50;4973199;28;20054;-90
2021/06/05 04:28:03;;;;;;;51.88;29.70;;;19.90;98.10;;;18.76;98.72;100813.59;4976488;28;20097;-89
2021/06/05 04:30:37;;;;;;;46.05;28.00;;;19.90;98.10;;;18.77;98.93;100819.94;4972749;28;20053;-90
2021/06/05 04:33:14;;;;;;;47.58;28.65;;;19.90;98.10;;;18.77;98.84;100817.19;4972670;28;20574;-89
2021/06/05 04:35:53;;;;;;;46.20;28.25;;;19.90;98.10;;;18.76;99.07;100821.84;4987851;28;20047;-89
2021/06/05 04:38:27;;;;;;;47.75;29.65;;;19.90;98.10;;;18.76;99.22;100805.31;4973070;28;20050;-88
2021/06/05 04:41:10;;;;;;;47.05;28.70;;;19.90;98.30;;;18.78;99.26;100815.28;4972626;28;20198;-89
2021/06/05 04:43:49;;;;;;;49.83;30.40;;;19.90;98.20;;;18.76;99.46;100805.31;4971359;28;20077;-89
2021/06/05 04:46:27;;;;;;;51.83;31.77;;;19.90;98.20;;;18.78;99.21;100815.28;4972728;28;20562;-90
2021/06/05 04:49:05;;;;;;;49.42;30.75;;;20.00;98.30;;;18.78;99.35;100805.09;4971728;28;20050;-89
2021/06/05 04:51:45;;;;;;;53.85;31.85;;;20.00;98.30;;;18.78;99.43;100805.09;4972466;28;20094;-89
2021/06/05 04:54:23;;;;;;;56.67;33.43;;;20.00;98.30;;;18.77;99.49;100806.16;4972682;28;20038;-89
2021/06/05 04:57:00;;;;;;;55.53;33.88;;;20.00;98.30;;;18.76;99.72;100802.56;4972634;28;20294;-88
2021/06/05 04:59:38;;;;;;;62.70;35.50;;;19.90;98.30;;;18.76;99.99;100799.81;4970703;28;20058;-88
2021/06/05 05:02:16;;;;;;;60.92;34.42;;;20.00;98.20;;;18.76;100.00;100802.56;4972440;28;20050;-89
2021/06/05 05:04:52;;;;;;;61.22;34.50;;;19.90;98.40;;;18.76;100.00;100802.56;4972278;28;20459;-88
2021/06/05 05:07:27;;;;;;;58.42;35.10;;;20.00;98.40;;;18.79;99.96;100811.44;4972282;28;20039;-89
2021/06/05 05:10:06;;;;;;;60.60;36.33;;;20.00;98.40;;;18.80;100.00;100807.63;4971901;28;20455;-89
2021/06/05 05:12:43;;;;;;;64.55;37.75;;;20.00;98.40;;;18.80;99.98;100804.88;4971476;28;20087;-89
2021/06/05 05:15:21;;;;;;;66.72;37.97;;;20.00;98.30;;;18.78;99.99;100807.00;4972006;28;20057;-89
2021/06/05 05:17:56;;;;;;;69.18;37.97;;;20.00;98.40;;;18.80;99.76;100813.13;4970682;28;20110;-89
2021/06/05 05:20:36;;;;;;;72.97;39.38;;;20.00;98.40;;;18.81;99.77;100812.06;4971328;28;20101;-89
2021/06/05 05:23:13;;;;;;;83.57;43.63;;;20.00;98.30;;;18.80;99.66;100810.38;4972031;28;20069;-89
2021/06/05 05:25:54;;;;;;;83.70;43.90;;;20.00;98.30;;;18.81;99.98;100803.81;4972155;28;20047;-88
2021/06/05 05:28:38;;;;;;;81.88;44.00;;;20.00;98.30;;;18.82;100.00;100802.75;4972103;28;20046;-88
2021/06/05 05:31:17;;;;;;;83.85;44.28;;;20.00;98.20;;;18.83;100.00;100815.44;4971757;28;20039;-89
2021/06/05 05:33:56;;;;;;;75.20;41.90;;;20.10;98.60;;;18.85;100.00;100810.53;4972011;28;20035;-89
2021/06/05 05:36:36;;;;;;;80.13;42.22;;;20.10;98.60;;;18.87;100.00;100811.16;4971841;28;20046;-90
2021/06/05 05:39:17;;;;;;;75.05;40.80;;;20.10;98.80;;;18.87;100.00;100820.28;4971730;28;20054;-88
2021/06/05 05:41:53;;;;;;;;;;;20.10;98.60;;;18.89;100.00;100812.63;4972164;28;20463;-88
2021/06/05 05:44:42;;;;;;;77.13;42.85;;;20.10;98.70;;;18.90;100.00;100814.28;4971671;28;19926;-89
2021/06/05 05:47:20;;;;;;;75.15;41.85;;;20.20;98.60;;;18.91;100.00;100821.50;4971632;28;20039;-89
2021/06/05 05:49:58;;;;;;;79.95;44.15;;;20.20;98.60;;;18.90;100.00;100821.72;4971452;28;20050;-89
2021/06/05 05:52:37;;;;;;;84.97;44.67;;;20.20;98.40;;;18.92;100.00;100822.31;4971541;28;20066;-89
2021/06/05 05:55:15;;;;;;;78.80;44.25;;;20.20;98.80;;;18.93;100.00;100821.28;4971629;28;20050;-89
2021/06/05 05:57:50;;;;;;;78.50;42.95;;;20.20;98.70;;;18.94;100.00;100828.44;4971522;28;20102;-88
2021/06/05 06:00:32;;;;;;;79.10;43.75;;;20.20;98.60;;;18.94;100.00;100837.59;4971140;28;20047;-89
2021/06/05 06:03:08;;;;;;;80.45;43.97;;;20.30;98.50;;;18.96;100.00;100834.56;4971399;28;20078;-88
2021/06/05 06:05:43;;;;;;;78.63;42.17;;;20.30;98.80;;;18.98;100.00;100843.44;4971382;28;20053;-89
2021/06/05 06:08:19;;;;;;;73.00;41.33;;;20.30;98.90;;;18.98;100.00;100837.94;4971302;28;20105;-89
2021/06/05 06:10:57;;;;;;;81.65;42.20;;;20.30;98.70;;;18.99;100.00;100839.63;4969573;28;20075;-89
2021/06/05 06:13:36;;;;;;;72.88;41.63;;;20.30;98.80;;;19.01;100.00;100851.28;4969956;28;20054;-89
2021/06/05 06:16:22;;;;;;;74.50;42.20;;;20.30;98.50;;;19.02;100.00;100850.22;4971279;28;20050;-87
2021/06/05 06:18:59;;;;;;;72.50;42.72;;;20.30;98.30;;;19.00;100.00;100852.38;4971030;28;20043;-89
2021/06/05 06:21:35;;;;;;;73.20;42.85;;;20.30;98.40;;;19.01;100.00;100847.69;4999380;28;20096;-89
2021/06/05 06:24:12;;;;;;;70.75;40.65;;;20.30;98.30;;;19.01;100.00;100853.19;5008662;28;20061;-89
2021/06/05 06:26:51;;;;;;;70.13;40.17;;;20.30;98.30;;;19.01;100.00;100859.56;5008458;28;20041;-89
2021/06/05 06:29:31;;;;;;;68.68;40.10;;;20.30;98.60;;;19.00;100.00;100855.13;5009708;28;20046;-89
2021/06/05 06:32:09;;;;;;;66.40;39.17;;;20.30;98.50;;;19.00;100.00;100868.91;5009824;28;20049;-89
2021/06/05 06:34:44;;;;;;;68.75;39.13;;;20.30;98.80;;;18.99;100.00;100861.69;5025031;22;20046;-75
2021/06/05 06:37:22;;;;;;;74.88;39.67;;;20.30;98.50;;;19.01;100.00;100870.59;5009696;28;20042;-76
2021/06/05 06:39:57;;;;;;;68.90;40.35;;;20.30;98.60;;;18.99;100.00;100872.75;5009496;28;20042;-76
2021/06/05 06:42:35;;;;;;;70.80;39.42;;;20.30;98.60;;;18.99;100.00;100877.41;5008427;28;20050;-75
2021/06/05 06:45:15;;;;;;;67.97;39.15;;;20.30;98.60;;;18.98;100.00;100876.56;5009707;28;20050;-75
2021/06/05 06:47:51;;;;;;;70.53;39.08;;;20.30;98.50;;;18.98;100.00;100881.25;5009658;28;20046;-76
2021/06/05 06:50:33;;;;;;;70.80;38.83;;;20.30;98.50;;;18.97;100.00;100885.91;5009278;28;20042;-75
2021/06/05 06:53:08;;;;;;;66.47;36.75;;;20.30;98.60;;;18.98;100.00;100893.09;5009516;28;20070;-75
2021/06/05 06:55:47;;;;;;;68.40;37.88;;;20.30;98.50;;;18.98;100.00;100887.59;5009489;28;20038;-76
2021/06/05 06:58:23;;;;;;;64.28;35.80;;;20.30;98.50;;;18.99;100.00;100896.72;5007905;28;20049;-75
2021/06/05 07:01:00;;;;;;;64.72;37.28;;;20.30;98.40;;;18.99;100.00;100894.81;5009184;28;20530;-76
2021/06/05 07:03:36;;;;;;;63.03;35.50;;;20.30;98.40;;;18.99;100.00;100891.22;5009399;28;20070;-76
2021/06/05 07:06:15;;;;;;;60.60;34.70;;;20.30;98.30;;;18.98;100.00;100898.63;5009284;28;20053;-76
2021/06/05 07:08:54;;;;;;;61.97;36.20;;;20.30;98.20;;;18.98;100.00;100895.88;5009337;28;20665;-75
2021/06/05 07:11:37;;;;;;;65.35;36.70;;;20.30;98.20;;;18.98;100.00;100909.66;5009141;28;20050;-75
2021/06/05 07:14:13;;;;;;;60.72;36.72;;;20.30;98.20;;;18.98;100.00;100906.91;5009253;28;20088;-75
2021/06/05 07:16:51;;;;;;;62.83;35.65;;;20.30;98.20;;;18.97;100.00;100910.75;5009228;28;20100;-76
2021/06/05 07:19:31;;;;;;;61.85;35.08;;;20.30;98.30;;;18.98;100.00;100904.13;5008928;28;20053;-76
2021/06/05 07:22:10;;;;;;;57.95;34.70;;;20.30;98.30;;;18.98;100.00;100904.13;5009185;28;20077;-76
2021/06/05 07:24:45;;;;;;;59.22;33.00;;;20.30;98.20;;;18.98;100.00;100909.66;5009058;28;20072;-76
2021/06/05 07:27:23;;;;;;;56.15;32.20;;;20.30;98.30;;;18.99;100.00;100905.84;5008952;28;20046;-76
2021/06/05 07:30:01;;;;;;;56.78;33.65;;;20.30;98.40;;;18.99;100.00;100910.53;5008590;28;20479;-75
2021/06/05 07:32:39;;;;;;;62.78;34.05;;;20.30;98.60;;;18.98;100.00;100906.91;5008956;28;20082;-75
2021/06/05 07:35:16;;;;;;;65.45;34.22;;;20.30;98.50;;;18.98;100.00;100909.66;5008204;28;20085;-76
2021/06/05 07:37:53;;;;;;;57.55;33.92;;;20.30;98.60;;;19.00;100.00;100907.53;5008920;28;20447;-76
2021/06/05 07:40:31;;;;;;;56.83;33.08;;;20.30;98.50;;;19.00;100.00;100906.66;5008458;28;20076;-76
2021/06/05 07:43:07;;;;;;;60.05;33.15;;;20.30;98.50;;;18.98;100.00;100909.66;5008693;28;20042;-76
2021/06/05 07:45:45;;;;;;;59.22;32.55;;;20.30;98.40;;;18.99;100.00;100916.88;5008626;28;20053;-75
2021/06/05 07:48:24;;;;;;;57.30;31.75;;;20.30;98.30;;;18.99;100.00;100919.63;5008711;28;20046;-75
2021/06/05 07:51:03;;;;;;;60.28;32.53;;;20.30;98.50;;;18.99;100.00;100916.88;5008389;28;20041;-75
2021/06/05 07:53:43;;;;;;;56.88;32.05;;;20.30;98.50;;;19.00;100.00;100921.34;4991648;28;20099;-76
2021/06/05 07:56:21;;;;;;;55.55;32.13;;;20.40;98.50;;;19.01;100.00;100924.91;5008635;28;20069;-75
2021/06/05 07:58:56;;;;;;;54.72;31.48;;;20.40;98.30;;;19.00;100.00;100924.09;5008476;28;20074;-76
2021/06/05 08:01:31;;;;;;;57.10;32.25;;;20.40;98.20;;;19.00;100.00;100924.09;5008245;28;20131;-76
2021/06/05 08:04:04;;;;;;;58.60;34.25;;;20.40;98.10;;;19.01;100.00;100920.25;5006953;28;20433;-75
2021/06/05 08:06:44;;;;;;;57.75;32.95;;;20.40;98.30;;;19.00;100.00;100918.56;5008430;28;20048;-75
2021/06/05 08:09:22;;;;;;;58.85;33.85;;;20.40;98.10;;;19.02;100.00;100916.44;5008367;28;20050;-76
2021/06/05 08:12:01;;;;;;;59.90;34.13;;;20.40;98.10;;;19.01;100.00;100920.25;5008362;28;20046;-76
2021/06/05 08:14:39;;;;;;;62.80;33.67;;;20.40;98.00;;;19.00;100.00;100923.22;5010675;28;20772;-75
2021/06/05 08:17:17;;;;;;;56.13;32.95;;;20.40;98.10;;;18.98;100.00;100920.69;5028109;28;20048;-76
2021/06/05 08:19:50;;;;;;;56.40;31.45;;;20.30;98.00;;;19.00;100.00;100929.59;5026218;28;20258;-76
2021/06/05 08:22:38;;;;;;;52.67;31.58;;;20.40;98.00;;;18.96;100.00;100922.84;5028102;28;20069;-76
2021/06/05 08:25:15;;;;;;;54.85;31.33;;;20.30;97.70;;;18.97;100.00;100919.03;5028090;28;20060;-76
2021/06/05 08:27:51;;;;;;;52.05;31.10;;;20.30;97.70;;;18.96;100.00;100925.59;5028001;28;20041;-76
2021/06/05 08:30:32;;;;;;;51.72;30.42;;;20.30;97.70;;;18.94;100.00;100917.56;5027873;28;20129;-75
2021/06/05 08:33:05;;;;;;;48.90;30.40;;;20.30;97.70;;;18.92;100.00;100919.72;5026568;28;20851;-76
2021/06/05 08:35:42;;;;;;;49.20;29.90;;;20.30;97.60;;;18.93;100.00;100921.41;5027780;28;20049;-76
2021/06/05 08:38:19;;;;;;;47.47;30.10;;;20.30;97.60;;;18.93;100.00;100926.06;5026623;28;20103;-76
2021/06/05 08:41:04;;;;;;;47.25;28.77;;;20.30;97.80;;;18.92;100.00;100916.09;5027572;28;20045;-75
2021/06/05 08:43:45;;;;;;;50.75;29.48;;;20.30;97.90;;;18.92;100.00;100913.34;5027852;28;20493;-76
2021/06/05 08:46:24;;;;;;;51.42;29.85;;;20.20;97.70;;;18.92;100.00;100916.09;5030113;28;20045;-76
2021/06/05 08:49:05;;;;;;;52.72;30.85;;;20.20;97.70;;;18.92;100.00;100916.09;5031511;28;20638;-76
2021/06/05 08:52:04;;;;;;;49.60;30.88;;;20.20;97.80;;;18.92;100.00;100918.84;5031257;28;20045;-76
2021/06/05 08:55:04;;;;;;;68.07;37.15;;;20.30;97.90;;;18.93;100.00;100917.81;5031485;28;20050;-75
2021/06/05 08:57:45;;;;;;;73.03;40.28;;;20.30;97.90;;;18.94;100.00;100925.00;5030148;28;20406;-76
2021/06/05 09:00:32;;;;;;;75.88;43.67;;;20.30;97.80;;;18.93;100.00;100924.16;5029518;28;20050;-75
2021/06/05 09:03:17;;;;;;;83.47;48.03;;;20.30;97.80;;;18.95;100.00;100921.16;5031077;28;20046;-76
2021/06/05 09:06:01;;;;;;;92.63;51.20;;;20.30;97.70;;;18.94;100.00;100914.81;5031336;28;20061;-75
2021/06/05 09:08:40;;;;;;;88.93;49.33;;;20.30;97.70;;;18.96;100.00;100920.09;5031234;28;20041;-76
2021/06/05 09:11:18;;;;;;;86.65;50.05;;;20.30;97.60;;;18.97;100.00;100923.72;5030883;28;20037;-76
2021/06/05 09:13:56;;;;;;;86.43;47.80;;;20.40;97.90;;;18.97;100.00;100920.94;5031013;28;20045;-76
2021/06/05 09:16:48;;;;;;;81.07;45.83;;;20.30;97.70;;;18.96;100.00;100917.31;5030982;28;20057;-76
2021/06/05 09:19:29;;;;;;;86.75;48.67;;;20.30;97.60;;;19.00;100.00;100924.09;5030982;28;20049;-76
2021/06/05 09:22:19;;;;;;;;;;;20.40;97.60;;;18.99;100.00;100916.88;5031487;28;20038;-76
2021/06/05 09:25:01;;;;;;;91.82;50.35;;;20.40;97.60;;;19.03;100.00;100918.09;5030443;28;19925;-76
2021/06/05 09:27:39;;;;;;;102.00;53.22;;;20.50;98.00;;;19.06;100.00;100914.88;5030971;28;20565;-75
2021/06/05 09:30:42;;;;;;;103.30;55.30;;;20.50;98.30;;;19.07;100.00;100916.56;5030705;28;20497;-75
2021/06/05 09:33:30;;;;;;;102.50;54.67;;;20.50;97.60;;;19.11;100.00;100919.69;5030886;28;20482;-76
2021/06/05 09:36:26;;;;;;;105.00;55.05;;;20.60;97.60;;;19.17;100.00;100917.94;5030896;28;20054;-76
2021/06/05 09:39:05;;;;;;;97.85;54.97;;;20.70;97.70;;;19.20;100.00;100918.31;5024520;28;20112;-76
2021/06/05 09:41:51;;;;;;;100.95;55.70;;;20.80;97.90;;;19.25;100.00;100923.16;5030606;28;20042;-75
2021/06/05 09:44:43;;;;;;;101.43;53.80;;;20.90;98.00;;;19.30;100.00;100920.50;5030756;28;20045;-76
2021/06/05 09:47:31;;;;;;;91.28;51.45;;;20.90;97.70;;;19.35;100.00;100915.16;5030372;28;20045;-77
2021/06/05 09:50:28;;;;;;;91.75;50.50;;;21.00;97.80;;;19.40;100.00;100923.56;5030190;28;20041;-76
2021/06/05 09:53:22;;;;;;;87.80;47.58;;;21.00;98.30;;;19.46;100.00;100924.56;5030450;28;20054;-76
2021/06/05 09:56:03;;;;;;;88.45;48.25;;;21.10;98.20;;;19.48;100.00;100925.16;5030310;28;20573;-76
2021/06/05 09:58:48;;;;;;;87.80;49.23;;;21.20;98.10;;;19.52;100.00;100918.09;5029814;28;20095;-76
2021/06/05 10:01:34;;;;;;;86.38;49.25;;;21.20;97.70;;;19.53;100.00;100926.16;5028687;28;20475;-76
2021/06/05 10:04:22;;;;;;;87.63;47.85;;;21.20;97.30;;;19.56;100.00;100922.06;5028782;28;20053;-75
2021/06/05 10:07:03;;;;;;;87.68;48.38;;;21.30;97.30;;;19.61;100.00;100930.50;5030102;28;20103;-76
2021/06/05 10:09:48;;;;;;;84.70;46.70;;;21.30;97.50;;;19.64;100.00;100927.25;5030024;28;20041;-75
2021/06/05 10:12:28;;;;;;;94.53;50.13;;;21.40;96.90;;;19.70;100.00;100928.22;5030101;28;20052;-76
2021/06/05 10:15:14;;;;;;;85.57;46.00;;;21.40;98.60;;;19.75;100.00;100930.34;5030013;28;20045;-75
2021/06/05 10:18:00;;;;;;;86.20;46.92;;;21.50;98.30;;;19.77;100.00;100934.53;5030068;28;20048;-76
2021/06/05 10:20:55;;;;;;;80.85;45.47;;;21.50;98.00;;;19.80;100.00;100934.09;5029680;28;20044;-76
2021/06/05 10:23:39;;;;;;;86.32;45.30;;;21.50;97.70;;;19.81;100.00;100935.75;5026697;28;20520;-76
2021/06/05 10:26:35;;;;;;;81.25;45.08;;;21.60;97.60;;;19.83;100.00;100941.88;5029742;28;20044;-76
2021/06/05 10:29:21;;;;;;;80.38;45.10;;;21.50;97.00;;;19.87;100.00;100936.72;5029638;28;20046;-76
2021/06/05 10:32:00;;;;;;;90.35;45.88;;;21.60;97.00;;;19.90;100.00;100939.84;5029515;28;20045;-76
2021/06/05 10:34:45;;;;;;;83.82;45.92;;;21.60;97.80;;;19.92;100.00;100934.94;5029445;28;20038;-76
2021/06/05 10:37:22;;;;;;;84.93;45.67;;;21.60;97.40;;;19.96;100.00;100940.00;5029469;28;20058;-76
2021/06/05 10:40:02;;;;;;;83.35;45.90;;;21.70;97.20;;;20.00;100.00;100932.91;5029132;28;20048;-76
2021/06/05 10:42:44;;;;;;;76.75;44.45;;;21.70;97.00;;;20.01;100.00;100929.06;5028023;28;20592;-76
2021/06/05 10:45:29;;;;;;;85.85;45.45;;;21.70;96.00;;;20.08;100.00;100938.94;5027874;28;20061;-76
2021/06/05 10:48:15;;;;;;;90.60;46.85;;;21.80;96.40;;;20.20;100.00;100922.38;5029228;28;20041;-76
2021/06/05 10:51:04;;;;;;;88.72;48.53;;;21.90;97.70;;;20.25;100.00;100919.72;5029124;28;20076;-76
2021/06/05 10:53:49;;;;;;;88.97;46.70;;;22.00;97.30;;;20.28;100.00;100913.72;5029238;28;20041;-76